Time;durP1;ratioP1;P1;durP2;ratioP2;P2;SDS_P1;SDS_P2;PMS_P1;PMS_P2;Temp;Humidity;BMP_temperature;BMP_pressure;BME280_temperature;BME280_humidity;BME280_pressure;Samples;Min_cycle;Max_cycle;Signal;HPM_P1;HPM_P2
2023/07/23 00:01:56;;;;;;;3.43;3.10;;;18.20;99.90;;;;;;5048186;28;20680;-50
2023/07/23 00:04:23;;;;;;;2.87;2.67;;;18.20;99.90;;;;;;5040751;28;20197;-50
2023/07/23 00:06:50;;;;;;;2.40;2.30;;;18.20;99.90;;;;;;5040791;28;20706;-50
2023/07/23 00:09:18;;;;;;;2.47;2.37;;;18.20;99.90;;;;;;5047570;28;20201;-50
2023/07/23 00:11:45;;;;;;;2.20;2.10;;;18.20;99.90;;;;;;5040066;28;20224;-51
2023/07/23 00:14:12;;;;;;;2.50;2.30;;;18.10;99.90;;;;;;5047228;28;20198;-50
2023/07/23 00:16:39;;;;;;;4.00;2.87;;;18.10;99.90;;;;;;5047008;28;20198;-50
2023/07/23 00:19:06;;;;;;;3.97;3.60;;;18.00;99.90;;;;;;5045462;28;20201;-50
2023/07/23 00:21:33;;;;;;;3.33;3.13;;;18.00;99.90;;;;;;5046154;28;20249;-50
2023/07/23 00:24:00;;;;;;;3.00;2.70;;;18.00;99.90;;;;;;5046399;28;20202;-50
2023/07/23 00:26:28;;;;;;;2.93;2.83;;;18.10;99.90;;;;;;5037289;28;20197;-50
2023/07/23 00:28:55;;;;;;;2.23;2.07;;;18.00;99.90;;;;;;5043506;28;20544;-50
2023/07/23 00:31:22;;;;;;;3.10;2.90;;;18.00;99.90;;;;;;5046076;28;20283;-50
2023/07/23 00:33:49;;;;;;;2.30;2.20;;;18.00;99.90;;;;;;5041945;28;20255;-50
2023/07/23 00:36:16;;;;;;;3.10;2.90;;;18.00;99.90;;;;;;5040352;28;20268;-50
2023/07/23 00:38:43;;;;;;;4.10;2.90;;;18.10;99.90;;;;;;5039853;28;20223;-50
2023/07/23 00:41:10;;;;;;;3.17;2.50;;;18.00;99.90;;;;;;5042767;28;20205;-50
2023/07/23 00:43:38;;;;;;;2.97;2.77;;;18.00;99.90;;;;;;5037523;28;20226;-50
2023/07/23 00:46:05;;;;;;;2.77;2.57;;;17.90;99.90;;;;;;5045886;28;20278;-50
2023/07/23 00:48:32;;;;;;;2.50;2.30;;;17.90;99.90;;;;;;5045224;28;20638;-50
2023/07/23 00:50:59;;;;;;;2.63;2.40;;;17.90;99.90;;;;;;5051881;28;20198;-50
2023/07/23 00:53:26;;;;;;;3.53;3.27;;;17.90;99.90;;;;;;5050865;28;20626;-50
2023/07/23 00:55:54;;;;;;;3.43;3.23;;;18.00;99.90;;;;;;5050568;28;20300;-50
2023/07/23 00:58:22;;;;;;;2.60;2.40;;;17.90;99.90;;;;;;5044446;28;20222;-50
2023/07/23 01:00:51;;;;;;;2.30;2.20;;;17.90;99.90;;;;;;5045771;28;20210;-50
2023/07/23 01:03:17;;;;;;;4.70;2.57;;;17.80;99.90;;;;;;5045065;28;20742;-50
2023/07/23 01:05:46;;;;;;;4.53;2.33;;;17.80;99.90;;;;;;5036853;28;20193;-50
2023/07/23 01:08:14;;;;;;;3.27;2.97;;;17.80;99.90;;;;;;5039369;28;20213;-50
2023/07/23 01:10:41;;;;;;;2.70;2.50;;;17.80;99.90;;;;;;5035860;28;20202;-50
2023/07/23 01:13:08;;;;;;;2.83;2.63;;;17.80;99.90;;;;;;5039011;28;20587;-50
2023/07/23 01:15:35;;;;;;;2.63;2.47;;;17.80;99.90;;;;;;5044667;28;20221;-50
2023/07/23 01:18:04;;;;;;;2.53;2.33;;;17.80;99.90;;;;;;5038989;28;20277;-50
2023/07/23 01:20:31;;;;;;;2.70;2.60;;;17.80;99.90;;;;;;5041431;28;20224;-50
2023/07/23 01:22:59;;;;;;;3.23;2.93;;;17.80;99.90;;;;;;5044684;28;20202;-50
2023/07/23 01:25:26;;;;;;;3.27;2.63;;;17.70;99.90;;;;;;5042023;28;20587;-50
2023/07/23 01:27:53;;;;;;;3.07;2.10;;;17.70;99.90;;;;;;5046831;28;20312;-50
2023/07/23 01:30:20;;;;;;;3.23;2.93;;;17.70;99.90;;;;;;5047299;28;20202;-50
2023/07/23 01:32:48;;;;;;;2.90;2.70;;;17.60;99.90;;;;;;5048350;28;20275;-50
2023/07/23 01:35:17;;;;;;;2.53;2.40;;;17.60;99.90;;;;;;5048148;28;20249;-50
2023/07/23 01:37:48;;;;;;;2.83;2.63;;;17.50;99.90;;;;;;5040048;28;20804;-50
2023/07/23 01:40:17;;;;;;;6.60;2.87;;;17.50;99.90;;;;;;5038520;28;20206;-50
2023/07/23 01:42:48;;;;;;;2.80;2.60;;;17.50;99.90;;;;;;5045005;28;20198;-50
2023/07/23 01:45:15;;;;;;;2.20;2.10;;;17.50;99.90;;;;;;5045058;28;20198;-50
2023/07/23 01:47:45;;;;;;;5.17;2.67;;;17.50;99.90;;;;;;5046084;28;20252;-50
2023/07/23 01:50:12;;;;;;;2.50;2.30;;;17.50;99.90;;;;;;5037731;28;20198;-50
2023/07/23 01:52:39;;;;;;;2.97;2.67;;;17.50;99.90;;;;;;5036615;28;20785;-50
2023/07/23 01:55:07;;;;;;;8.93;3.40;;;17.60;99.90;;;;;;5045244;28;20287;-50
2023/07/23 01:57:35;;;;;;;6.50;2.63;;;17.60;99.90;;;;;;5047300;28;20257;-50
2023/07/23 02:00:03;;;;;;;2.63;2.53;;;17.60;99.90;;;;;;5053109;28;20292;-50
2023/07/23 02:02:30;;;;;;;3.23;2.50;;;17.60;99.90;;;;;;5045980;28;20206;-50
2023/07/23 02:04:57;;;;;;;3.60;3.40;;;17.50;99.90;;;;;;5038227;28;20194;-50
2023/07/23 02:07:24;;;;;;;2.63;2.53;;;17.50;99.90;;;;;;5037125;28;20221;-52
2023/07/23 02:09:51;;;;;;;2.80;2.43;;;17.40;99.90;;;;;;5043333;28;20202;-50
2023/07/23 02:12:18;;;;;;;3.37;3.17;;;17.40;99.90;;;;;;5041782;28;20240;-50
2023/07/23 02:14:47;;;;;;;2.47;2.37;;;17.40;99.90;;;;;;5044157;28;20663;-50
2023/07/23 02:17:14;;;;;;;4.20;2.57;;;17.40;99.90;;;;;;5048743;28;20221;-50
2023/07/23 02:19:40;;;;;;;5.30;2.70;;;17.40;99.90;;;;;;5052217;28;20194;-50
2023/07/23 02:22:08;;;;;;;3.13;2.93;;;17.30;99.90;;;;;;5045406;28;20801;-50
2023/07/23 02:24:35;;;;;;;2.20;2.10;;;17.30;99.90;;;;;;5042242;28;20202;-50
2023/07/23 02:27:01;;;;;;;3.00;2.80;;;17.20;99.90;;;;;;5052053;28;20229;-50
2023/07/23 02:29:28;;;;;;;3.50;2.80;;;17.20;99.90;;;;;;5046436;28;20205;-50
2023/07/23 02:31:57;;;;;;;4.00;2.50;;;17.20;99.90;;;;;;5049357;28;20226;-50
2023/07/23 02:34:24;;;;;;;2.37;2.27;;;17.20;99.90;;;;;;5037278;28;20198;-50
2023/07/23 02:36:50;;;;;;;2.80;2.70;;;17.20;99.90;;;;;;5042030;28;20234;-50
2023/07/23 02:39:17;;;;;;;4.47;3.43;;;17.10;99.90;;;;;;5052019;28;20687;-50
2023/07/23 02:41:44;;;;;;;2.90;2.73;;;17.10;99.90;;;;;;5051067;28;20256;-50
2023/07/23 02:44:12;;;;;;;4.83;2.73;;;17.10;99.90;;;;;;5042115;28;20284;-50
2023/07/23 02:46:39;;;;;;;3.27;2.97;;;17.10;99.90;;;;;;5036570;28;20198;-50
2023/07/23 02:49:07;;;;;;;5.43;3.37;;;17.10;99.90;;;;;;5048115;28;20203;-50
2023/07/23 02:51:34;;;;;;;3.33;2.80;;;17.10;99.90;;;;;;5048894;28;20195;-50
2023/07/23 02:54:01;;;;;;;2.60;2.40;;;17.10;99.90;;;;;;5042785;28;20202;-50
2023/07/23 02:56:28;;;;;;;2.93;2.80;;;17.10;99.90;;;;;;5041067;28;20276;-50
2023/07/23 02:58:55;;;;;;;2.33;2.23;;;17.10;99.90;;;;;;5042265;28;20260;-50
2023/07/23 03:01:22;;;;;;;2.43;2.33;;;17.10;99.90;;;;;;5046492;28;20631;-50
2023/07/23 03:03:48;;;;;;;2.97;2.80;;;17.00;99.90;;;;;;5041770;28;20256;-50
2023/07/23 03:06:17;;;;;;;3.83;3.23;;;17.00;99.90;;;;;;5037424;28;20667;-50
2023/07/23 03:08:44;;;;;;;3.07;2.97;;;17.10;99.90;;;;;;5040343;28;20217;-50
2023/07/23 03:11:11;;;;;;;4.10;3.30;;;17.10;99.90;;;;;;5047455;28;20201;-50
2023/07/23 03:13:38;;;;;;;2.80;2.60;;;17.10;99.90;;;;;;5052004;28;20202;-50
2023/07/23 03:16:05;;;;;;;2.50;2.37;;;17.10;99.90;;;;;;5044435;28;20796;-50
2023/07/23 03:18:32;;;;;;;3.40;3.10;;;17.10;99.90;;;;;;5044724;28;20661;-50
2023/07/23 03:20:59;;;;;;;3.50;3.20;;;17.10;99.90;;;;;;5043792;28;20256;-50
2023/07/23 03:23:27;;;;;;;2.73;2.63;;;17.20;99.90;;;;;;5044252;28;20198;-49
2023/07/23 03:25:54;;;;;;;3.20;2.93;;;17.30;99.90;;;;;;5043468;28;20652;-50
2023/07/23 03:28:21;;;;;;;3.83;2.77;;;17.30;99.90;;;;;;5051921;28;20291;-50
2023/07/23 03:30:49;;;;;;;3.40;2.83;;;17.40;99.90;;;;;;5037650;28;20206;-50
2023/07/23 03:33:16;;;;;;;2.70;2.50;;;17.40;99.90;;;;;;5050981;28;20289;-50
2023/07/23 03:35:42;;;;;;;3.03;2.93;;;17.40;99.90;;;;;;5043367;28;20241;-50
2023/07/23 03:38:09;;;;;;;3.90;3.10;;;17.30;99.90;;;;;;5040050;28;20229;-50
2023/07/23 03:40:38;;;;;;;3.40;3.10;;;17.30;99.90;;;;;;5044915;28;20663;-50
2023/07/23 03:43:05;;;;;;;3.97;2.80;;;17.30;99.90;;;;;;5047878;28;20730;-50
2023/07/23 03:45:32;;;;;;;4.20;3.10;;;17.30;99.90;;;;;;5040535;28;20253;-50
2023/07/23 03:47:58;;;;;;;3.97;2.87;;;17.40;99.90;;;;;;5046514;28;20213;-50
2023/07/23 03:50:25;;;;;;;2.53;2.43;;;17.40;99.90;;;;;;5043775;28;20248;-50
2023/07/23 03:52:53;;;;;;;3.33;3.10;;;17.40;99.90;;;;;;5044127;28;20214;-50
2023/07/23 03:55:20;;;;;;;5.53;3.20;;;17.40;99.90;;;;;;5050299;28;20229;-50
2023/07/23 03:57:50;;;;;;;3.00;2.80;;;17.40;99.90;;;;;;5045355;28;20229;-50
2023/07/23 04:00:17;;;;;;;2.97;2.63;;;17.40;99.90;;;;;;5043793;28;20193;-50
2023/07/23 04:02:46;;;;;;;4.33;2.77;;;17.40;99.90;;;;;;5040630;28;20248;-50
2023/07/23 04:05:13;;;;;;;3.73;2.33;;;17.40;99.90;;;;;;5046910;28;20202;-50
2023/07/23 04:07:44;;;;;;;2.60;2.50;;;17.50;99.90;;;;;;5045966;28;20257;-50
2023/07/23 04:10:11;;;;;;;3.73;3.53;;;17.50;99.90;;;;;;5041214;28;20201;-50
2023/07/23 04:12:38;;;;;;;3.10;2.80;;;17.50;99.90;;;;;;5044219;28;20194;-50
2023/07/23 04:15:07;;;;;;;3.10;2.90;;;17.50;99.90;;;;;;5044293;28;20229;-50
2023/07/23 04:17:34;;;;;;;3.73;3.03;;;17.50;99.90;;;;;;5043239;28;20295;-50
2023/07/23 04:20:01;;;;;;;2.67;2.47;;;17.40;99.90;;;;;;5043911;28;20252;-50
2023/07/23 04:22:28;;;;;;;3.10;3.00;;;17.30;99.90;;;;;;5042879;28;20206;-50
2023/07/23 04:24:55;;;;;;;5.47;2.93;;;17.30;99.90;;;;;;5043052;28;20214;-50
2023/07/23 04:27:22;;;;;;;3.97;3.67;;;17.30;99.90;;;;;;5041443;28;20314;-50
2023/07/23 04:29:49;;;;;;;5.97;3.43;;;17.40;99.90;;;;;;5043036;28;20197;-50
2023/07/23 04:32:17;;;;;;;3.27;3.07;;;17.30;99.90;;;;;;5044259;28;20226;-50
2023/07/23 04:34:44;;;;;;;4.30;2.77;;;17.40;99.90;;;;;;5042470;28;20226;-50
2023/07/23 04:37:13;;;;;;;3.37;3.07;;;17.40;99.90;;;;;;5041886;28;20271;-49
2023/07/23 04:39:40;;;;;;;2.17;2.07;;;17.30;99.90;;;;;;5069146;22;20259;-54
2023/07/23 04:42:07;;;;;;;3.03;2.93;;;17.30;99.90;;;;;;5036226;28;20287;-54
2023/07/23 04:44:34;;;;;;;3.50;2.93;;;17.40;99.90;;;;;;5041830;28;20261;-54
2023/07/23 04:47:01;;;;;;;3.20;3.00;;;17.40;99.90;;;;;;5034810;28;20198;-54
2023/07/23 04:49:29;;;;;;;3.47;2.60;;;17.40;99.90;;;;;;5043226;28;20272;-54
2023/07/23 04:51:56;;;;;;;3.17;2.87;;;17.50;99.90;;;;;;5029215;28;20199;-54
2023/07/23 04:54:23;;;;;;;3.53;3.23;;;17.50;99.90;;;;;;5028347;28;20198;-54
2023/07/23 04:56:50;;;;;;;4.87;2.90;;;17.60;99.90;;;;;;5010691;28;20324;-54
2023/07/23 04:59:17;;;;;;;3.43;3.13;;;17.70;99.90;;;;;;5010525;28;20202;-54
2023/07/23 05:01:44;;;;;;;3.47;3.27;;;17.80;99.90;;;;;;5013608;28;20268;-52
2023/07/23 05:04:11;;;;;;;3.50;3.20;;;17.80;99.90;;;;;;5011752;28;20550;-52
2023/07/23 05:06:39;;;;;;;3.10;2.93;;;18.00;99.90;;;;;;5013578;28;20656;-52
2023/07/23 05:09:06;;;;;;;4.17;3.77;;;18.10;99.90;;;;;;5029453;28;20238;-52
2023/07/23 05:11:33;;;;;;;2.50;2.40;;;18.30;99.90;;;;;;5030248;28;20207;-52
2023/07/23 05:14:00;;;;;;;4.67;2.87;;;18.70;99.90;;;;;;5030392;28;20202;-52
2023/07/23 05:16:27;;;;;;;2.43;2.33;;;19.20;99.90;;;;;;5030273;28;20225;-53
2023/07/23 05:18:54;;;;;;;5.80;2.90;;;19.80;99.90;;;;;;5029894;28;20272;-52
2023/07/23 05:21:21;;;;;;;3.13;2.60;;;20.30;99.90;;;;;;5029468;28;20291;-52
2023/07/23 05:23:49;;;;;;;2.80;2.60;;;20.90;99.90;;;;;;5022595;28;20762;-54
2023/07/23 05:26:16;;;;;;;2.40;2.30;;;21.60;99.90;;;;;;5021192;28;20249;-53
2023/07/23 05:28:43;;;;;;;8.37;2.50;;;21.90;99.90;;;;;;5020402;28;20249;-54
2023/07/23 05:31:10;;;;;;;2.40;2.23;;;22.20;99.90;;;;;;5022535;28;20291;-53
2023/07/23 05:33:37;;;;;;;2.60;2.50;;;22.40;99.90;;;;;;5022499;28;20205;-53
2023/07/23 05:36:05;;;;;;;3.67;2.90;;;22.90;99.90;;;;;;5020789;28;20276;-53
2023/07/23 05:38:32;;;;;;;4.73;3.20;;;23.40;99.90;;;;;;5021048;28;20211;-53
2023/07/23 05:41:00;;;;;;;2.70;2.50;;;23.60;99.90;;;;;;5022614;28;20226;-53
2023/07/23 05:43:27;;;;;;;2.83;2.70;;;23.80;99.90;;;;;;5024769;28;20260;-53
2023/07/23 05:45:54;;;;;;;2.53;2.37;;;24.10;99.90;;;;;;5021164;28;20198;-53
2023/07/23 05:48:21;;;;;;;3.17;2.73;;;24.50;99.90;;;;;;5022440;28;20255;-53
2023/07/23 05:50:48;;;;;;;4.67;3.30;;;24.30;99.90;;;;;;5021973;28;20226;-53
2023/07/23 05:53:15;;;;;;;2.80;2.60;;;24.10;99.90;;;;;;5021352;28;20199;-53
2023/07/23 05:55:42;;;;;;;2.93;2.70;;;24.30;99.90;;;;;;5021237;28;20198;-53
2023/07/23 05:58:11;;;;;;;2.90;2.70;;;24.10;99.90;;;;;;5027743;28;20284;-53
2023/07/23 06:00:38;;;;;;;5.23;2.57;;;23.40;99.90;;;;;;5021278;28;20291;-53
2023/07/23 06:03:05;;;;;;;3.67;3.47;;;22.80;99.90;;;;;;5024352;28;20206;-53
2023/07/23 06:05:32;;;;;;;3.50;3.23;;;22.60;99.90;;;;;;5024507;28;20281;-53
2023/07/23 06:07:58;;;;;;;4.03;3.63;;;23.00;99.90;;;;;;5034303;28;20333;-53
2023/07/23 06:10:25;;;;;;;2.73;2.50;;;23.10;99.90;;;;;;5029175;28;20314;-53
2023/07/23 06:12:52;;;;;;;3.20;3.07;;;22.90;99.90;;;;;;5033745;28;20202;-53
2023/07/23 06:15:21;;;;;;;3.43;3.23;;;23.30;99.90;;;;;;5029456;28;20282;-53
2023/07/23 06:17:50;;;;;;;3.07;2.83;;;23.80;99.90;;;;;;5031244;28;20223;-53
2023/07/23 06:20:17;;;;;;;3.23;2.97;;;24.20;99.90;;;;;;5036033;28;20226;-53
2023/07/23 06:22:46;;;;;;;2.70;2.53;;;24.90;99.90;;;;;;5027551;28;20198;-53
2023/07/23 06:25:13;;;;;;;3.23;2.93;;;25.20;99.90;;;;;;5024355;28;20605;-53
2023/07/23 06:27:41;;;;;;;2.93;2.73;;;25.30;99.90;;;;;;5021365;28;20252;-53
2023/07/23 06:30:09;;;;;;;6.83;3.07;;;25.80;99.90;;;;;;5022618;28;20222;-53
2023/07/23 06:32:37;;;;;;;2.87;2.73;;;25.80;99.90;;;;;;5020741;28;20268;-53
2023/07/23 06:35:10;;;;;;;3.00;2.77;;;26.10;99.90;;;;;;5022559;28;20264;-53
2023/07/23 06:37:37;;;;;;;2.93;2.77;;;26.50;99.90;;;;;;5021307;28;20640;-54
2023/07/23 06:40:06;;;;;;;3.23;3.03;;;27.00;99.90;;;;;;5026058;28;20235;-55
2023/07/23 06:42:32;;;;;;;3.20;3.10;;;27.20;99.90;;;;;;5023251;28;20230;-53
2023/07/23 06:45:00;;;;;;;3.10;2.30;;;27.40;99.90;;;;;;5030411;28;20210;-54
2023/07/23 06:47:26;;;;;;;3.27;3.17;;;27.80;99.90;;;;;;5032910;28;20198;-53
2023/07/23 06:49:55;;;;;;;2.57;2.47;;;27.60;99.90;;;;;;5032648;28;20708;-53
2023/07/23 06:52:22;;;;;;;2.72;2.63;;;28.00;99.90;;;;;;5031554;28;20264;-53
2023/07/23 06:54:49;;;;;;;2.72;2.50;;;28.70;99.90;;;;;;5032562;28;20203;-53
2023/07/23 06:57:16;;;;;;;3.03;2.10;;;29.00;99.90;;;;;;5032720;28;20218;-54
2023/07/23 06:59:43;;;;;;;2.70;2.60;;;29.00;99.90;;;;;;5032446;28;20796;-54
2023/07/23 07:02:10;;;;;;;3.15;3.05;;;28.80;99.90;;;;;;5031976;28;20260;-53
2023/07/23 07:04:37;;;;;;;2.80;2.70;;;28.70;99.90;;;;;;5032629;28;20256;-53
2023/07/23 07:07:06;;;;;;;3.47;3.28;;;29.00;99.90;;;;;;5032430;28;20698;-53
2023/07/23 07:09:33;;;;;;;2.72;2.63;;;29.20;99.90;;;;;;5031417;28;20296;-54
2023/07/23 07:12:00;;;;;;;2.45;2.28;;;29.70;99.90;;;;;;5032468;28;20234;-54
2023/07/23 07:14:27;;;;;;;2.55;2.45;;;29.90;99.90;;;;;;5032332;28;20656;-54
2023/07/23 07:16:54;;;;;;;2.60;2.50;;;30.20;99.90;;;;;;5032001;28;20222;-54
2023/07/23 07:19:21;;;;;;;3.08;2.88;;;30.50;99.90;;;;;;5031757;28;20566;-54
2023/07/23 07:21:49;;;;;;;2.55;2.45;;;30.70;99.90;;;;;;5031964;28;20211;-54
2023/07/23 07:24:18;;;;;;;2.83;2.72;;;31.00;99.90;;;;;;5032122;28;20260;-54
2023/07/23 07:26:45;;;;;;;2.88;2.67;;;30.90;99.90;;;;;;5031611;28;20207;-54
2023/07/23 07:29:12;;;;;;;3.47;3.17;;;31.20;99.90;;;;;;5032161;28;20206;-54
2023/07/23 07:31:39;;;;;;;2.53;2.42;;;31.30;99.90;;;;;;5032036;28;20652;-54
2023/07/23 07:34:06;;;;;;;3.38;3.28;;;31.70;99.90;;;;;;5022531;28;20199;-53
2023/07/23 07:36:33;;;;;;;3.15;2.90;;;31.70;99.90;;;;;;5026720;28;20202;-54
2023/07/23 07:39:00;;;;;;;3.03;2.83;;;32.10;99.80;;;;;;5032409;28;20203;-54
2023/07/23 07:41:28;;;;;;;3.03;2.92;;;32.40;99.90;;;;;;5023694;28;20291;-54
2023/07/23 07:43:55;;;;;;;3.35;3.08;;;32.30;99.90;;;;;;5031301;28;20202;-54
2023/07/23 07:46:23;;;;;;;4.97;3.03;;;32.60;99.90;;;;;;5033856;28;20210;-53
2023/07/23 07:48:50;;;;;;;2.60;2.50;;;32.90;99.70;;;;;;5036505;28;20458;-62
2023/07/23 07:51:17;;;;;;;3.33;3.22;;;32.40;98.70;;;;;;5030557;28;20620;-58
2023/07/23 07:53:44;;;;;;;3.20;3.00;;;32.60;99.90;;;;;;5033881;28;20206;-59
2023/07/23 07:56:15;;;;;;;3.00;2.88;;;32.70;99.60;;;;;;5033298;28;20198;-59
2023/07/23 07:58:44;;;;;;;2.63;2.53;;;32.90;99.90;;;;;;5033551;28;20252;-59
2023/07/23 08:01:12;;;;;;;5.53;2.88;;;32.90;99.80;;;;;;5034314;28;20225;-59
2023/07/23 08:03:39;;;;;;;3.00;2.80;;;32.80;98.30;;;;;;5031856;28;20222;-58
2023/07/23 08:06:07;;;;;;;3.38;3.00;;;32.40;97.60;;;;;;5037369;28;20199;-59
2023/07/23 08:08:35;;;;;;;3.13;2.72;;;32.70;99.90;;;;;;5029218;28;20191;-58
2023/07/23 08:11:04;;;;;;;3.20;3.00;;;32.30;97.30;;;;;;5032391;28;20234;-59
2023/07/23 08:13:32;;;;;;;2.53;2.42;;;32.10;98.20;;;;;;5030919;28;20703;-58
2023/07/23 08:16:00;;;;;;;3.28;3.17;;;31.80;97.40;;;;;;5035473;28;20267;-59
2023/07/23 08:18:28;;;;;;;2.33;2.10;;;32.30;96.90;;;;;;5035344;28;20222;-58
2023/07/23 08:20:57;;;;;;;2.53;2.42;;;31.80;98.70;;;;;;5040935;28;20283;-62
2023/07/23 08:23:25;;;;;;;2.90;2.78;;;31.40;99.90;;;;;;5037023;28;20214;-62
2023/07/23 08:25:54;;;;;;;2.63;2.53;;;31.20;99.90;;;;;;5031563;28;20209;-62
2023/07/23 08:28:23;;;;;;;2.70;2.53;;;31.20;99.90;;;;;;5021533;28;20194;-62
2023/07/23 08:30:50;;;;;;;2.70;2.42;;;31.90;99.90;;;;;;5026386;28;20222;-62
2023/07/23 08:33:20;;;;;;;2.20;2.10;;;31.70;97.90;;;;;;5030121;28;20303;-62
2023/07/23 08:35:47;;;;;;;2.22;2.17;;;31.20;98.00;;;;;;5030765;28;20194;-59
2023/07/23 08:38:16;;;;;;;1.98;1.90;;;31.10;97.80;;;;;;5030523;28;20222;-62
2023/07/23 08:40:44;;;;;;;2.22;2.13;;;31.00;99.60;;;;;;5021232;28;20235;-63
2023/07/23 08:43:47;;;;;;;2.67;2.47;;;31.70;97.80;;;;;;5022304;28;20203;-64
2023/07/23 08:46:21;;;;;;;2.22;2.08;;;31.00;96.90;;;;;;5030282;28;20743;-62
2023/07/23 08:49:03;;;;;;;2.25;2.13;;;31.00;97.20;;;;;;5030587;28;20232;-58
2023/07/23 08:51:34;;;;;;;2.72;2.58;;;31.30;97.10;;;;;;5025247;28;20280;-58
2023/07/23 08:54:03;;;;;;;2.28;2.17;;;31.80;97.20;;;;;;5030142;28;20206;-59
2023/07/23 08:56:30;;;;;;;4.28;2.40;;;32.30;97.90;;;;;;5030351;28;20760;-60
2023/07/23 08:59:01;;;;;;;2.05;2.03;;;32.90;95.70;;;;;;5028724;28;20272;-58
2023/07/23 09:01:32;;;;;;;2.25;2.15;;;33.40;96.40;;;;;;5029784;28;20254;-59
2023/07/23 09:04:01;;;;;;;3.33;3.17;;;33.00;95.70;;;;;;5029366;28;20206;-60
2023/07/23 09:06:30;;;;;;;2.33;2.28;;;32.90;95.60;;;;;;5030559;28;20217;-59
2023/07/23 09:09:05;;;;;;;2.63;2.40;;;33.00;95.30;;;;;;5030290;28;20205;-61
2023/07/23 09:11:32;;;;;;;3.05;2.95;;;33.40;95.10;;;;;;5021770;28;20235;-60
2023/07/23 09:14:04;;;;;;;2.45;2.33;;;33.00;95.20;;;;;;5030173;28;20648;-58
2023/07/23 09:16:31;;;;;;;2.50;2.30;;;33.90;93.80;;;;;;5022778;28;20211;-65
2023/07/23 09:18:58;;;;;;;3.15;2.65;;;34.10;93.10;;;;;;5029957;28;20573;-64
2023/07/23 09:21:28;;;;;;;2.55;2.45;;;33.80;94.10;;;;;;5021095;28;20552;-63
2023/07/23 09:23:56;;;;;;;2.40;2.30;;;33.30;93.60;;;;;;5031303;28;20203;-61
2023/07/23 09:26:25;;;;;;;2.88;2.67;;;32.50;94.10;;;;;;5050128;28;20210;-58
2023/07/23 09:28:53;;;;;;;2.60;2.40;;;32.20;94.20;;;;;;5030111;28;20207;-59
2023/07/23 09:31:26;;;;;;;2.05;2.05;;;32.50;94.20;;;;;;5029357;28;20222;-64
2023/07/23 09:33:57;;;;;;;2.72;2.63;;;32.30;95.70;;;;;;5029587;28;20595;-65
2023/07/23 09:36:27;;;;;;;2.10;2.08;;;31.90;94.70;;;;;;5029909;28;20250;-62
2023/07/23 09:38:59;;;;;;;2.50;2.38;;;32.30;94.30;;;;;;5027168;28;20222;-61
2023/07/23 09:41:31;;;;;;;2.80;2.60;;;32.10;95.30;;;;;;5024320;28;20473;-65
2023/07/23 09:44:00;;;;;;;2.60;2.47;;;31.60;94.00;;;;;;5029706;28;20289;-65
2023/07/23 09:46:27;;;;;;;2.92;2.83;;;31.30;94.90;;;;;;5025827;28;20206;-54
2023/07/23 09:48:54;;;;;;;3.03;2.83;;;31.40;96.10;;;;;;5025857;28;20207;-54
2023/07/23 09:51:22;;;;;;;3.08;2.92;;;31.70;94.10;;;;;;5032149;28;20226;-53
2023/07/23 09:53:51;;;;;;;2.85;2.58;;;30.80;96.30;;;;;;5029762;28;20699;-53
2023/07/23 09:56:19;;;;;;;2.28;2.25;;;30.50;96.40;;;;;;5026942;28;20230;-54
2023/07/23 09:58:48;;;;;;;2.45;2.35;;;31.40;94.80;;;;;;5027326;28;20218;-53
2023/07/23 10:01:17;;;;;;;2.35;2.35;;;31.90;94.60;;;;;;5018631;28;20226;-54
2023/07/23 10:03:44;;;;;;;2.58;2.47;;;32.10;94.00;;;;;;5022170;28;20286;-54
2023/07/23 10:06:12;;;;;;;1.80;1.80;;;32.40;92.80;;;;;;5029028;28;20425;-53
2023/07/23 10:08:43;;;;;;;2.40;2.30;;;32.40;92.60;;;;;;5028314;28;20290;-53
2023/07/23 10:11:13;;;;;;;2.90;2.63;;;32.60;92.80;;;;;;5012529;28;20270;-54
2023/07/23 10:13:41;;;;;;;2.05;2.03;;;33.10;93.70;;;;;;5025664;28;20203;-54
2023/07/23 10:16:12;;;;;;;2.28;2.17;;;33.00;92.80;;;;;;5030955;28;20206;-54
2023/07/23 10:18:42;;;;;;;2.33;2.22;;;33.00;94.10;;;;;;5033293;28;20297;-54
2023/07/23 10:21:10;;;;;;;2.75;2.65;;;32.90;93.50;;;;;;5028495;28;20227;-54
2023/07/23 10:23:40;;;;;;;2.45;2.35;;;33.20;91.90;;;;;;5028777;28;20289;-54
2023/07/23 10:26:24;;;;;;;2.58;2.47;;;33.60;90.30;;;;;;5031443;28;20309;-54
2023/07/23 10:28:52;;;;;;;2.08;1.98;;;33.80;90.00;;;;;;5017969;28;20657;-54
2023/07/23 10:31:21;;;;;;;2.35;2.15;;;33.60;90.60;;;;;;5032338;28;20835;-54
2023/07/23 10:33:49;;;;;;;2.25;2.13;;;33.60;91.40;;;;;;5033784;28;20202;-54
2023/07/23 10:36:17;;;;;;;2.50;2.40;;;33.40;91.70;;;;;;5029876;28;20213;-54
2023/07/23 10:38:44;;;;;;;2.45;2.35;;;33.40;93.40;;;;;;5032694;28;20226;-53
2023/07/23 10:41:11;;;;;;;2.10;2.00;;;33.00;90.10;;;;;;5032625;28;20227;-53
2023/07/23 10:43:41;;;;;;;2.28;2.17;;;33.00;90.00;;;;;;5080100;22;20274;-52
2023/07/23 10:46:10;;;;;;;2.28;2.28;;;33.20;89.60;;;;;;5065905;28;20201;-53
2023/07/23 10:48:45;;;;;;;3.00;2.90;;;32.60;91.10;;;;;;5058323;28;20281;-51
2023/07/23 10:51:13;;;;;;;2.80;2.60;;;32.60;90.80;;;;;;5059688;28;20222;-52
2023/07/23 10:53:41;;;;;;;2.10;2.00;;;32.70;90.90;;;;;;5058508;28;20252;-59
2023/07/23 10:56:28;;;;;;;3.25;2.50;;;32.50;90.30;;;;;;5065747;28;20199;-57
2023/07/23 10:58:59;;;;;;;3.28;3.15;;;32.00;90.40;;;;;;5074237;28;20262;-58
2023/07/23 11:01:28;;;;;;;2.30;2.20;;;31.70;91.00;;;;;;5060382;28;20214;-57
2023/07/23 11:03:57;;;;;;;3.65;2.70;;;31.60;90.70;;;;;;5065067;28;20296;-57
2023/07/23 11:06:32;;;;;;;2.05;1.95;;;31.40;90.90;;;;;;5068420;28;20237;-56
2023/07/23 11:09:03;;;;;;;3.22;2.97;;;31.20;90.60;;;;;;5053692;28;20571;-57
2023/07/23 11:11:38;;;;;;;2.40;2.30;;;31.20;91.70;;;;;;5070164;28;20201;-57
2023/07/23 11:14:18;;;;;;;2.75;2.55;;;31.00;92.00;;;;;;5053768;28;20251;-56
2023/07/23 11:16:46;;;;;;;2.17;2.08;;;31.00;91.80;;;;;;5064754;28;20276;-56
2023/07/23 11:19:13;;;;;;;3.20;2.15;;;30.60;91.60;;;;;;5068797;28;20216;-59
2023/07/23 11:21:50;;;;;;;2.22;2.13;;;30.30;93.90;;;;;;5069509;28;20198;-57
2023/07/23 11:24:18;;;;;;;2.20;2.20;;;30.10;92.90;;;;;;5063192;28;20205;-57
2023/07/23 11:26:45;;;;;;;2.70;2.50;;;29.70;93.20;;;;;;5069770;28;20232;-56
2023/07/23 11:29:14;;;;;;;2.47;2.38;;;29.60;94.60;;;;;;5073497;28;20201;-55
2023/07/23 11:31:41;;;;;;;1.88;1.83;;;29.80;93.20;;;;;;5073344;28;20205;-57
2023/07/23 11:34:09;;;;;;;2.13;2.03;;;29.80;91.80;;;;;;5063019;28;20201;-56
2023/07/23 11:36:37;;;;;;;2.22;2.20;;;29.70;93.00;;;;;;5057663;28;20255;-57
2023/07/23 11:39:05;;;;;;;2.10;2.00;;;29.60;93.70;;;;;;5053108;28;20750;-55
2023/07/23 11:41:33;;;;;;;2.38;2.28;;;29.80;93.30;;;;;;5053231;28;20198;-55
2023/07/23 11:44:03;;;;;;;2.65;2.55;;;29.70;94.60;;;;;;5059987;28;20264;-63
2023/07/23 11:46:33;;;;;;;1.92;1.90;;;29.60;92.70;;;;;;5058357;28;20201;-57
2023/07/23 11:49:01;;;;;;;2.20;2.10;;;29.50;93.40;;;;;;5053239;28;20200;-56
2023/07/23 11:51:29;;;;;;;2.80;2.67;;;29.50;94.90;;;;;;5055114;28;20202;-55
2023/07/23 11:54:02;;;;;;;9.57;2.40;;;29.40;95.40;;;;;;5061090;28;20237;-57
2023/07/23 11:56:31;;;;;;;2.60;2.50;;;29.40;93.70;;;;;;5070041;28;20236;-57
2023/07/23 11:59:03;;;;;;;2.58;2.42;;;29.30;94.00;;;;;;5072779;28;20228;-59
2023/07/23 12:01:31;;;;;;;2.63;2.53;;;29.10;93.50;;;;;;5071477;28;20666;-58
2023/07/23 12:04:00;;;;;;;3.28;2.67;;;28.80;93.90;;;;;;5064205;28;20220;-58
2023/07/23 12:06:29;;;;;;;2.85;2.65;;;28.80;95.40;;;;;;5066974;28;20206;-56
2023/07/23 12:08:57;;;;;;;2.38;2.28;;;28.80;94.30;;;;;;5072608;28;20225;-51
2023/07/23 12:11:26;;;;;;;2.83;2.72;;;28.80;95.70;;;;;;5069865;28;20255;-52
2023/07/23 12:13:54;;;;;;;2.70;2.60;;;28.70;97.00;;;;;;5060801;28;20267;-52
2023/07/23 12:16:39;;;;;;;2.67;2.47;;;28.80;94.90;;;;;;5050989;28;20206;-52
2023/07/23 12:19:07;;;;;;;2.03;2.03;;;28.80;96.50;;;;;;5049868;28;20646;-51
2023/07/23 12:21:36;;;;;;;2.08;2.05;;;28.90;95.10;;;;;;5050694;28;20910;-52
2023/07/23 12:24:17;;;;;;;3.20;2.97;;;29.00;94.00;;;;;;5059369;28;20303;-52
2023/07/23 12:26:44;;;;;;;3.05;2.85;;;28.90;94.40;;;;;;5051884;28;20201;-52
2023/07/23 12:29:11;;;;;;;2.55;2.45;;;29.00;94.20;;;;;;5052446;28;20721;-52
2023/07/23 12:31:42;;;;;;;2.38;2.13;;;29.00;93.50;;;;;;5059681;28;20292;-52
2023/07/23 12:34:09;;;;;;;2.50;2.40;;;29.00;93.50;;;;;;5064205;28;20202;-52
2023/07/23 12:36:36;;;;;;;2.15;2.05;;;29.10;94.90;;;;;;5065269;28;20213;-52
2023/07/23 12:39:04;;;;;;;2.40;2.20;;;29.20;94.20;;;;;;5064123;28;20213;-52
2023/07/23 12:41:31;;;;;;;2.40;2.30;;;29.30;95.70;;;;;;5063395;28;20197;-52
2023/07/23 12:43:58;;;;;;;2.78;2.67;;;29.10;94.30;;;;;;5061144;28;20220;-52
2023/07/23 12:46:26;;;;;;;2.90;2.70;;;29.20;95.80;;;;;;5052247;28;20594;-52
2023/07/23 12:48:54;;;;;;;2.72;2.63;;;28.80;94.70;;;;;;5052991;28;20613;-52
2023/07/23 12:51:22;;;;;;;2.70;2.60;;;28.80;94.30;;;;;;5065027;28;20572;-52
2023/07/23 12:53:49;;;;;;;3.05;2.90;;;28.80;93.80;;;;;;5064595;28;20220;-52